sensor_id;sensor_type;location;lat;lon;timestamp;temperature;humidity
37268;DHT22;23154;52.542;13.362;2023-11-22T00:01:39;0.30;99.90
37268;DHT22;23154;52.542;13.362;2023-11-22T00:04:06;0.30;99.90
37268;DHT22;23154;52.542;13.362;2023-11-22T00:06:32;0.30;99.90
37268;DHT22;23154;52.542;13.362;2023-11-22T00:08:58;0.30;99.90
37268;DHT22;23154;52.542;13.362;2023-11-22T00:11:26;0.30;99.90
37268;DHT22;23154;52.542;13.362;2023-11-22T00:13:51;0.40;99.90
37268;DHT22;23154;52.542;13.362;2023-11-22T00:16:21;0.40;99.90
37268;DHT22;23154;52.542;13.362;2023-11-22T00:18:47;0.40;99.90
37268;DHT22;23154;52.542;13.362;2023-11-22T00:21:13;0.40;99.90
37268;DHT22;23154;52.542;13.362;2023-11-22T00:23:39;0.40;99.90
37268;DHT22;23154;52.542;13.362;2023-11-22T00:26:05;0.40;99.90
37268;DHT22;23154;52.542;13.362;2023-11-22T00:28:32;0.40;99.90
37268;DHT22;23154;52.542;13.362;2023-11-22T00:30:57;0.40;99.90
37268;DHT22;23154;52.542;13.362;2023-11-22T00:33:24;0.40;99.90
37268;DHT22;23154;52.542;13.362;2023-11-22T00:35:49;0.40;99.90
37268;DHT22;23154;52.542;13.362;2023-11-22T00:38:16;0.50;99.90
37268;DHT22;23154;52.542;13.362;2023-11-22T00:40:42;0.40;99.90
37268;DHT22;23154;52.542;13.362;2023-11-22T00:43:07;0.40;99.90
37268;DHT22;23154;52.542;13.362;2023-11-22T00:45:35;0.40;99.90
37268;DHT22;23154;52.542;13.362;2023-11-22T00:48:01;0.40;99.90
37268;DHT22;23154;52.542;13.362;2023-11-22T00:50:26;0.30;99.90
37268;DHT22;23154;52.542;13.362;2023-11-22T00:52:52;0.30;99.90
37268;DHT22;23154;52.542;13.362;2023-11-22T00:55:19;0.30;99.90
37268;DHT22;23154;52.542;13.362;2023-11-22T00:57:44;0.20;99.90
37268;DHT22;23154;52.542;13.362;2023-11-22T01:00:10;0.20;99.90
37268;DHT22;23154;52.542;13.362;2023-11-22T01:02:37;0.10;99.90
37268;DHT22;23154;52.542;13.362;2023-11-22T01:05:07;0.10;99.90
37268;DHT22;23154;52.542;13.362;2023-11-22T01:07:41;0.00;99.90
37268;DHT22;23154;52.542;13.362;2023-11-22T01:10:07;-0.10;99.90
37268;DHT22;23154;52.542;13.362;2023-11-22T01:12:33;-0.20;99.90
37268;DHT22;23154;52.542;13.362;2023-11-22T01:14:59;-0.30;99.90
37268;DHT22;23154;52.542;13.362;2023-11-22T01:17:24;-0.40;99.90
37268;DHT22;23154;52.542;13.362;2023-11-22T01:19:50;-0.50;99.90
37268;DHT22;23154;52.542;13.362;2023-11-22T01:22:16;-0.50;99.90
37268;DHT22;23154;52.542;13.362;2023-11-22T01:24:43;-0.40;99.90
37268;DHT22;23154;52.542;13.362;2023-11-22T01:27:08;-0.50;99.90
37268;DHT22;23154;52.542;13.362;2023-11-22T01:29:34;-0.50;99.90
37268;DHT22;23154;52.542;13.362;2023-11-22T01:32:00;-0.50;99.90
37268;DHT22;23154;52.542;13.362;2023-11-22T01:34:26;-0.60;99.90
37268;DHT22;23154;52.542;13.362;2023-11-22T01:36:52;-0.60;99.90
37268;DHT22;23154;52.542;13.362;2023-11-22T01:39:17;-0.60;99.90
37268;DHT22;23154;52.542;13.362;2023-11-22T01:41:46;-0.70;99.90
37268;DHT22;23154;52.542;13.362;2023-11-22T01:44:15;-0.80;99.90
37268;DHT22;23154;52.542;13.362;2023-11-22T01:46:42;-0.80;99.90
37268;DHT22;23154;52.542;13.362;2023-11-22T01:49:10;-0.80;99.90
37268;DHT22;23154;52.542;13.362;2023-11-22T01:51:40;-1.00;99.90
37268;DHT22;23154;52.542;13.362;2023-11-22T01:54:06;-1.00;99.90
37268;DHT22;23154;52.542;13.362;2023-11-22T01:56:35;-1.00;99.90
37268;DHT22;23154;52.542;13.362;2023-11-22T01:59:01;-1.10;99.90
37268;DHT22;23154;52.542;13.362;2023-11-22T02:01:27;-1.00;99.90
37268;DHT22;23154;52.542;13.362;2023-11-22T02:03:54;-1.10;99.90
37268;DHT22;23154;52.542;13.362;2023-11-22T02:06:20;-1.10;99.90
37268;DHT22;23154;52.542;13.362;2023-11-22T02:08:50;-1.10;99.90
37268;DHT22;23154;52.542;13.362;2023-11-22T02:11:19;-1.20;99.90
37268;DHT22;23154;52.542;13.362;2023-11-22T02:13:48;-1.10;99.90
37268;DHT22;23154;52.542;13.362;2023-11-22T02:16:20;-1.20;99.90
37268;DHT22;23154;52.542;13.362;2023-11-22T02:18:47;-1.20;99.90
37268;DHT22;23154;52.542;13.362;2023-11-22T02:21:13;-1.20;99.90
37268;DHT22;23154;52.542;13.362;2023-11-22T02:23:40;-1.20;99.90
37268;DHT22;23154;52.542;13.362;2023-11-22T02:26:07;-1.30;99.90
37268;DHT22;23154;52.542;13.362;2023-11-22T02:28:33;-1.40;99.90
37268;DHT22;23154;52.542;13.362;2023-11-22T02:30:59;-1.50;99.90
37268;DHT22;23154;52.542;13.362;2023-11-22T02:33:25;-1.40;99.90
37268;DHT22;23154;52.542;13.362;2023-11-22T02:35:50;-1.40;99.90
37268;DHT22;23154;52.542;13.362;2023-11-22T02:38:16;-1.40;99.90
37268;DHT22;23154;52.542;13.362;2023-11-22T02:40:43;-1.40;99.90
37268;DHT22;23154;52.542;13.362;2023-11-22T02:43:09;-1.30;99.90
37268;DHT22;23154;52.542;13.362;2023-11-22T02:45:36;-1.20;99.90
37268;DHT22;23154;52.542;13.362;2023-11-22T02:48:02;-1.20;99.90
37268;DHT22;23154;52.542;13.362;2023-11-22T02:50:29;-1.30;99.90
37268;DHT22;23154;52.542;13.362;2023-11-22T02:52:57;-1.20;99.90
37268;DHT22;23154;52.542;13.362;2023-11-22T02:55:24;-1.20;99.90
37268;DHT22;23154;52.542;13.362;2023-11-22T02:57:50;-1.40;99.90
37268;DHT22;23154;52.542;13.362;2023-11-22T03:00:17;-1.50;99.90
37268;DHT22;23154;52.542;13.362;2023-11-22T03:02:47;-1.40;99.90
37268;DHT22;23154;52.542;13.362;2023-11-22T03:05:13;-1.40;99.90
37268;DHT22;23154;52.542;13.362;2023-11-22T03:07:43;-1.30;99.90
37268;DHT22;23154;52.542;13.362;2023-11-22T03:10:09;-1.40;99.90
37268;DHT22;23154;52.542;13.362;2023-11-22T03:12:35;-1.30;99.90
37268;DHT22;23154;52.542;13.362;2023-11-22T03:15:01;-1.30;99.90
37268;DHT22;23154;52.542;13.362;2023-11-22T03:17:31;-1.40;99.90
37268;DHT22;23154;52.542;13.362;2023-11-22T03:19:58;-1.50;99.90
37268;DHT22;23154;52.542;13.362;2023-11-22T03:22:24;-1.60;99.90
37268;DHT22;23154;52.542;13.362;2023-11-22T03:24:50;-1.60;99.90
37268;DHT22;23154;52.542;13.362;2023-11-22T03:27:16;-1.60;99.90
37268;DHT22;23154;52.542;13.362;2023-11-22T03:29:43;-1.60;99.90
37268;DHT22;23154;52.542;13.362;2023-11-22T03:32:08;-1.60;99.90
37268;DHT22;23154;52.542;13.362;2023-11-22T03:34:34;-1.70;99.90
37268;DHT22;23154;52.542;13.362;2023-11-22T03:37:00;-1.70;99.90
37268;DHT22;23154;52.542;13.362;2023-11-22T03:39:25;-1.70;99.90
37268;DHT22;23154;52.542;13.362;2023-11-22T03:41:52;-1.80;99.90
37268;DHT22;23154;52.542;13.362;2023-11-22T03:44:18;-1.80;99.90
37268;DHT22;23154;52.542;13.362;2023-11-22T03:46:44;-1.80;99.90
37268;DHT22;23154;52.542;13.362;2023-11-22T03:49:09;-2.00;99.90
37268;DHT22;23154;52.542;13.362;2023-11-22T03:51:36;-2.10;99.90
37268;DHT22;23154;52.542;13.362;2023-11-22T03:54:02;-2.20;99.90
37268;DHT22;23154;52.542;13.362;2023-11-22T03:56:29;-2.20;99.90
37268;DHT22;23154;52.542;13.362;2023-11-22T03:58:55;-2.20;99.90
37268;DHT22;23154;52.542;13.362;2023-11-22T04:01:20;-2.10;99.90
37268;DHT22;23154;52.542;13.362;2023-11-22T04:03:47;-2.00;99.90
37268;DHT22;23154;52.542;13.362;2023-11-22T04:06:16;-2.10;99.90
37268;DHT22;23154;52.542;13.362;2023-11-22T04:08:46;-2.20;99.90
37268;DHT22;23154;52.542;13.362;2023-11-22T04:11:15;-2.10;99.90
37268;DHT22;23154;52.542;13.362;2023-11-22T04:13:42;-2.10;99.90
37268;DHT22;23154;52.542;13.362;2023-11-22T04:16:08;-2.10;99.90
37268;DHT22;23154;52.542;13.362;2023-11-22T04:18:35;-2.00;99.90
37268;DHT22;23154;52.542;13.362;2023-11-22T04:21:01;-2.00;99.90
37268;DHT22;23154;52.542;13.362;2023-11-22T04:23:32;-2.00;99.90
37268;DHT22;23154;52.542;13.362;2023-11-22T04:26:00;-1.90;99.90
37268;DHT22;23154;52.542;13.362;2023-11-22T04:28:27;-2.00;99.90
37268;DHT22;23154;52.542;13.362;2023-11-22T04:30:54;-2.10;99.90
37268;DHT22;23154;52.542;13.362;2023-11-22T04:33:20;-2.20;99.90
37268;DHT22;23154;52.542;13.362;2023-11-22T04:35:49;-2.20;99.90
37268;DHT22;23154;52.542;13.362;2023-11-22T04:38:15;-2.10;99.90
37268;DHT22;23154;52.542;13.362;2023-11-22T04:40:40;-2.10;99.90
37268;DHT22;23154;52.542;13.362;2023-11-22T04:43:08;-2.10;99.90
37268;DHT22;23154;52.542;13.362;2023-11-22T04:45:34;-2.20;99.90
37268;DHT22;23154;52.542;13.362;2023-11-22T04:48:00;-2.30;99.90
37268;DHT22;23154;52.542;13.362;2023-11-22T04:50:25;-2.40;99.90
37268;DHT22;23154;52.542;13.362;2023-11-22T04:52:51;-2.40;99.90
37268;DHT22;23154;52.542;13.362;2023-11-22T04:55:17;-2.40;99.90
37268;DHT22;23154;52.542;13.362;2023-11-22T04:57:45;-2.40;99.90
37268;DHT22;23154;52.542;13.362;2023-11-22T05:00:11;-2.30;99.90
37268;DHT22;23154;52.542;13.362;2023-11-22T05:02:38;-2.30;99.90
37268;DHT22;23154;52.542;13.362;2023-11-22T05:05:06;-2.30;99.90
37268;DHT22;23154;52.542;13.362;2023-11-22T05:07:31;-2.30;99.90
37268;DHT22;23154;52.542;13.362;2023-11-22T05:09:58;-2.30;99.90
37268;DHT22;23154;52.542;13.362;2023-11-22T05:12:24;-2.30;99.90
37268;DHT22;23154;52.542;13.362;2023-11-22T05:14:50;-2.30;99.90
37268;DHT22;23154;52.542;13.362;2023-11-22T05:17:16;-2.30;99.90
37268;DHT22;23154;52.542;13.362;2023-11-22T05:19:41;-2.30;99.90
37268;DHT22;23154;52.542;13.362;2023-11-22T05:22:07;-2.40;99.90
37268;DHT22;23154;52.542;13.362;2023-11-22T05:24:33;-2.40;99.90
37268;DHT22;23154;52.542;13.362;2023-11-22T05:27:00;-2.30;99.90
37268;DHT22;23154;52.542;13.362;2023-11-22T05:29:27;-2.50;99.90
37268;DHT22;23154;52.542;13.362;2023-11-22T05:31:53;-2.50;99.90
37268;DHT22;23154;52.542;13.362;2023-11-22T05:34:20;-2.60;99.90
37268;DHT22;23154;52.542;13.362;2023-11-22T05:36:45;-2.70;99.90
37268;DHT22;23154;52.542;13.362;2023-11-22T05:39:11;-2.80;99.90
37268;DHT22;23154;52.542;13.362;2023-11-22T05:41:37;-2.70;99.90
37268;DHT22;23154;52.542;13.362;2023-11-22T05:44:03;-2.70;99.90
37268;DHT22;23154;52.542;13.362;2023-11-22T05:46:29;-2.70;99.90
37268;DHT22;23154;52.542;13.362;2023-11-22T05:48:55;-2.60;99.90
37268;DHT22;23154;52.542;13.362;2023-11-22T05:51:21;-2.60;99.90
37268;DHT22;23154;52.542;13.362;2023-11-22T05:53:47;-2.50;99.90
37268;DHT22;23154;52.542;13.362;2023-11-22T05:56:12;-2.70;99.90
37268;DHT22;23154;52.542;13.362;2023-11-22T05:58:38;-2.50;99.90
37268;DHT22;23154;52.542;13.362;2023-11-22T06:01:05;-2.50;99.90
37268;DHT22;23154;52.542;13.362;2023-11-22T06:03:31;-2.50;99.90
37268;DHT22;23154;52.542;13.362;2023-11-22T06:05:57;-2.50;99.90
37268;DHT22;23154;52.542;13.362;2023-11-22T06:08:26;-2.60;99.90
37268;DHT22;23154;52.542;13.362;2023-11-22T06:10:52;-2.70;99.90
37268;DHT22;23154;52.542;13.362;2023-11-22T06:13:19;-2.70;99.90
37268;DHT22;23154;52.542;13.362;2023-11-22T06:15:45;-2.70;99.90
37268;DHT22;23154;52.542;13.362;2023-11-22T06:18:11;-2.60;99.90
37268;DHT22;23154;52.542;13.362;2023-11-22T06:20:39;-2.70;99.90
37268;DHT22;23154;52.542;13.362;2023-11-22T06:23:05;-2.70;99.90
37268;DHT22;23154;52.542;13.362;2023-11-22T06:25:31;-2.70;99.90
37268;DHT22;23154;52.542;13.362;2023-11-22T06:27:56;-2.80;99.90
37268;DHT22;23154;52.542;13.362;2023-11-22T06:30:22;-2.80;99.90
37268;DHT22;23154;52.542;13.362;2023-11-22T06:32:48;-2.60;99.90
37268;DHT22;23154;52.542;13.362;2023-11-22T06:35:14;-2.50;99.90
37268;DHT22;23154;52.542;13.362;2023-11-22T06:37:41;-2.40;99.90
37268;DHT22;23154;52.542;13.362;2023-11-22T06:40:07;-2.50;99.90
37268;DHT22;23154;52.542;13.362;2023-11-22T06:42:35;-2.60;99.90
37268;DHT22;23154;52.542;13.362;2023-11-22T06:45:01;-2.50;99.90
37268;DHT22;23154;52.542;13.362;2023-11-22T06:47:28;-2.60;99.90
37268;DHT22;23154;52.542;13.362;2023-11-22T06:49:53;-2.50;99.90
37268;DHT22;23154;52.542;13.362;2023-11-22T06:52:19;-2.50;99.90
37268;DHT22;23154;52.542;13.362;2023-11-22T06:54:45;-2.40;99.90
37268;DHT22;23154;52.542;13.362;2023-11-22T06:57:10;-2.40;99.90
37268;DHT22;23154;52.542;13.362;2023-11-22T06:59:36;-2.50;99.90
37268;DHT22;23154;52.542;13.362;2023-11-22T07:02:02;-2.40;99.90
37268;DHT22;23154;52.542;13.362;2023-11-22T07:04:27;-2.30;99.90
37268;DHT22;23154;52.542;13.362;2023-11-22T07:06:54;-2.30;99.90
37268;DHT22;23154;52.542;13.362;2023-11-22T07:09:20;-2.30;99.90
37268;DHT22;23154;52.542;13.362;2023-11-22T07:11:45;-2.40;99.90
37268;DHT22;23154;52.542;13.362;2023-11-22T07:14:11;-2.30;99.90
37268;DHT22;23154;52.542;13.362;2023-11-22T07:16:37;-2.30;99.90
37268;DHT22;23154;52.542;13.362;2023-11-22T07:19:03;-2.20;99.90
37268;DHT22;23154;52.542;13.362;2023-11-22T07:21:31;-2.30;99.90
37268;DHT22;23154;52.542;13.362;2023-11-22T07:23:57;-2.30;99.90
37268;DHT22;23154;52.542;13.362;2023-11-22T07:26:24;-2.50;99.90
37268;DHT22;23154;52.542;13.362;2023-11-22T07:28:52;-2.40;99.90
37268;DHT22;23154;52.542;13.362;2023-11-22T07:31:18;-2.30;99.90
37268;DHT22;23154;52.542;13.362;2023-11-22T07:33:45;-2.20;99.90
37268;DHT22;23154;52.542;13.362;2023-11-22T07:36:10;-2.10;99.90
37268;DHT22;23154;52.542;13.362;2023-11-22T07:38:41;-2.10;99.90
37268;DHT22;23154;52.542;13.362;2023-11-22T07:41:08;-2.10;99.90
37268;DHT22;23154;52.542;13.362;2023-11-22T07:43:34;-1.90;99.90
37268;DHT22;23154;52.542;13.362;2023-11-22T07:45:59;-1.80;99.90
37268;DHT22;23154;52.542;13.362;2023-11-22T07:48:26;-1.80;99.90
37268;DHT22;23154;52.542;13.362;2023-11-22T07:50:53;-1.80;99.90
37268;DHT22;23154;52.542;13.362;2023-11-22T07:53:20;-1.70;99.90
37268;DHT22;23154;52.542;13.362;2023-11-22T07:55:45;-1.70;99.90
37268;DHT22;23154;52.542;13.362;2023-11-22T07:58:12;-1.80;99.90
37268;DHT22;23154;52.542;13.362;2023-11-22T08:00:38;-1.80;99.90
37268;DHT22;23154;52.542;13.362;2023-11-22T08:03:03;-1.70;99.90
37268;DHT22;23154;52.542;13.362;2023-11-22T08:05:29;-1.70;99.90
37268;DHT22;23154;52.542;13.362;2023-11-22T08:08:03;-1.60;99.90
37268;DHT22;23154;52.542;13.362;2023-11-22T08:10:34;-1.60;99.90
37268;DHT22;23154;52.542;13.362;2023-11-22T08:13:00;-1.60;99.90
37268;DHT22;23154;52.542;13.362;2023-11-22T08:15:26;-1.50;99.90
37268;DHT22;23154;52.542;13.362;2023-11-22T08:17:53;-1.50;99.90
37268;DHT22;23154;52.542;13.362;2023-11-22T08:20:18;-1.50;99.90
37268;DHT22;23154;52.542;13.362;2023-11-22T08:22:45;-1.50;99.90
37268;DHT22;23154;52.542;13.362;2023-11-22T08:25:14;-1.40;99.90
37268;DHT22;23154;52.542;13.362;2023-11-22T08:27:42;-1.40;99.90
37268;DHT22;23154;52.542;13.362;2023-11-22T08:30:08;-1.40;99.90
37268;DHT22;23154;52.542;13.362;2023-11-22T08:32:45;-1.40;99.90
37268;DHT22;23154;52.542;13.362;2023-11-22T08:35:13;-1.40;99.90
37268;DHT22;23154;52.542;13.362;2023-11-22T08:37:41;-1.40;99.90
37268;DHT22;23154;52.542;13.362;2023-11-22T08:40:08;-1.30;99.90
37268;DHT22;23154;52.542;13.362;2023-11-22T08:42:36;-1.30;99.90
37268;DHT22;23154;52.542;13.362;2023-11-22T08:45:06;-1.20;99.90
37268;DHT22;23154;52.542;13.362;2023-11-22T08:47:34;-1.20;99.90
37268;DHT22;23154;52.542;13.362;2023-11-22T08:50:00;-1.10;99.90
37268;DHT22;23154;52.542;13.362;2023-11-22T08:52:30;-1.00;99.90
37268;DHT22;23154;52.542;13.362;2023-11-22T08:54:56;-0.90;99.90
37268;DHT22;23154;52.542;13.362;2023-11-22T08:57:22;-0.90;99.90
37268;DHT22;23154;52.542;13.362;2023-11-22T08:59:47;-0.90;99.90
37268;DHT22;23154;52.542;13.362;2023-11-22T09:02:14;-0.80;99.90
37268;DHT22;23154;52.542;13.362;2023-11-22T09:04:41;-0.80;99.90
37268;DHT22;23154;52.542;13.362;2023-11-22T09:07:07;-0.80;99.90
37268;DHT22;23154;52.542;13.362;2023-11-22T09:09:34;-0.80;99.90
37268;DHT22;23154;52.542;13.362;2023-11-22T09:12:01;-0.60;99.90
37268;DHT22;23154;52.542;13.362;2023-11-22T09:14:27;-0.60;99.90
37268;DHT22;23154;52.542;13.362;2023-11-22T09:16:54;-0.50;99.90
37268;DHT22;23154;52.542;13.362;2023-11-22T09:19:24;-0.40;99.90
37268;DHT22;23154;52.542;13.362;2023-11-22T09:21:50;-0.50;99.90
37268;DHT22;23154;52.542;13.362;2023-11-22T09:24:17;-0.50;99.90
37268;DHT22;23154;52.542;13.362;2023-11-22T09:26:43;-0.50;99.90
37268;DHT22;23154;52.542;13.362;2023-11-22T09:29:12;-0.40;99.90
37268;DHT22;23154;52.542;13.362;2023-11-22T09:31:40;-0.30;99.90
37268;DHT22;23154;52.542;13.362;2023-11-22T09:34:08;-0.30;99.90
37268;DHT22;23154;52.542;13.362;2023-11-22T09:36:35;-0.20;99.90
37268;DHT22;23154;52.542;13.362;2023-11-22T09:39:00;-0.20;99.90
37268;DHT22;23154;52.542;13.362;2023-11-22T09:41:28;0.00;99.90
37268;DHT22;23154;52.542;13.362;2023-11-22T09:43:55;0.20;99.90
37268;DHT22;23154;52.542;13.362;2023-11-22T09:46:22;0.30;99.90
37268;DHT22;23154;52.542;13.362;2023-11-22T09:48:49;0.60;99.90
37268;DHT22;23154;52.542;13.362;2023-11-22T09:51:24;0.60;99.90
37268;DHT22;23154;52.542;13.362;2023-11-22T09:53:59;0.50;99.90
37268;DHT22;23154;52.542;13.362;2023-11-22T09:56:27;0.40;99.90
37268;DHT22;23154;52.542;13.362;2023-11-22T09:58:54;0.50;99.90
37268;DHT22;23154;52.542;13.362;2023-11-22T10:01:23;0.50;99.90
37268;DHT22;23154;52.542;13.362;2023-11-22T10:03:52;0.60;99.90
37268;DHT22;23154;52.542;13.362;2023-11-22T10:06:19;0.60;99.90
37268;DHT22;23154;52.542;13.362;2023-11-22T10:08:45;0.70;99.90
37268;DHT22;23154;52.542;13.362;2023-11-22T10:11:15;0.90;99.90
37268;DHT22;23154;52.542;13.362;2023-11-22T10:13:48;0.80;99.90
37268;DHT22;23154;52.542;13.362;2023-11-22T10:16:16;0.70;99.90
37268;DHT22;23154;52.542;13.362;2023-11-22T10:18:47;0.80;99.90
37268;DHT22;23154;52.542;13.362;2023-11-22T10:23:54;1.10;99.90
37268;DHT22;23154;52.542;13.362;2023-11-22T10:26:21;1.00;99.90
37268;DHT22;23154;52.542;13.362;2023-11-22T10:28:51;1.10;99.90
37268;DHT22;23154;52.542;13.362;2023-11-22T10:31:18;1.10;99.90
37268;DHT22;23154;52.542;13.362;2023-11-22T10:33:44;1.30;99.90
37268;DHT22;23154;52.542;13.362;2023-11-22T10:36:10;1.30;99.90
37268;DHT22;23154;52.542;13.362;2023-11-22T10:38:37;1.30;99.90
37268;DHT22;23154;52.542;13.362;2023-11-22T10:41:13;1.40;99.90
37268;DHT22;23154;52.542;13.362;2023-11-22T10:43:41;1.30;99.90
37268;DHT22;23154;52.542;13.362;2023-11-22T10:46:10;1.20;99.90
37268;DHT22;23154;52.542;13.362;2023-11-22T10:48:38;1.20;99.90
37268;DHT22;23154;52.542;13.362;2023-11-22T10:51:04;1.20;99.90
37268;DHT22;23154;52.542;13.362;2023-11-22T10:53:38;1.30;99.90
37268;DHT22;23154;52.542;13.362;2023-11-22T10:56:12;1.40;99.90
37268;DHT22;23154;52.542;13.362;2023-11-22T10:58:56;1.40;99.90
37268;DHT22;23154;52.542;13.362;2023-11-22T11:01:25;1.60;99.90
37268;DHT22;23154;52.542;13.362;2023-11-22T11:04:11;1.60;99.90
37268;DHT22;23154;52.542;13.362;2023-11-22T11:06:41;1.60;99.90
37268;DHT22;23154;52.542;13.362;2023-11-22T11:09:08;1.80;99.90
37268;DHT22;23154;52.542;13.362;2023-11-22T11:11:35;1.70;99.90
37268;DHT22;23154;52.542;13.362;2023-11-22T11:14:03;1.90;99.90
37268;DHT22;23154;52.542;13.362;2023-11-22T11:16:30;1.90;99.90
37268;DHT22;23154;52.542;13.362;2023-11-22T11:18:59;1.90;99.90
37268;DHT22;23154;52.542;13.362;2023-11-22T11:21:25;2.00;99.90
37268;DHT22;23154;52.542;13.362;2023-11-22T11:23:55;2.10;99.90
37268;DHT22;23154;52.542;13.362;2023-11-22T11:26:27;2.00;99.90
37268;DHT22;23154;52.542;13.362;2023-11-22T11:28:54;2.00;99.90
37268;DHT22;23154;52.542;13.362;2023-11-22T11:31:23;1.90;99.90
37268;DHT22;23154;52.542;13.362;2023-11-22T11:36:29;1.90;99.90
37268;DHT22;23154;52.542;13.362;2023-11-22T11:38:59;1.90;99.90
37268;DHT22;23154;52.542;13.362;2023-11-22T11:41:33;1.90;99.90
37268;DHT22;23154;52.542;13.362;2023-11-22T11:44:01;2.00;99.90
37268;DHT22;23154;52.542;13.362;2023-11-22T11:46:29;2.10;99.90
37268;DHT22;23154;52.542;13.362;2023-11-22T11:48:55;2.20;99.90
37268;DHT22;23154;52.542;13.362;2023-11-22T11:51:28;2.30;99.90
37268;DHT22;23154;52.542;13.362;2023-11-22T11:53:58;2.20;99.90
37268;DHT22;23154;52.542;13.362;2023-11-22T11:56:24;2.40;99.90
37268;DHT22;23154;52.542;13.362;2023-11-22T11:58:55;2.30;99.90
37268;DHT22;23154;52.542;13.362;2023-11-22T12:01:24;2.40;99.90
37268;DHT22;23154;52.542;13.362;2023-11-22T12:03:51;2.40;99.90
37268;DHT22;23154;52.542;13.362;2023-11-22T12:06:18;2.20;99.90
37268;DHT22;23154;52.542;13.362;2023-11-22T12:08:45;2.30;99.90
37268;DHT22;23154;52.542;13.362;2023-11-22T12:11:12;2.20;99.90
37268;DHT22;23154;52.542;13.362;2023-11-22T12:13:39;2.30;99.90
37268;DHT22;23154;52.542;13.362;2023-11-22T12:16:09;2.30;99.90
37268;DHT22;23154;52.542;13.362;2023-11-22T12:18:48;2.40;99.90
37268;DHT22;23154;52.542;13.362;2023-11-22T12:21:15;2.60;99.90
37268;DHT22;23154;52.542;13.362;2023-11-22T12:23:42;2.60;99.90
37268;DHT22;23154;52.542;13.362;2023-11-22T12:26:16;2.70;99.90
37268;DHT22;23154;52.542;13.362;2023-11-22T12:28:45;2.70;99.90
37268;DHT22;23154;52.542;13.362;2023-11-22T12:31:12;2.80;99.90
37268;DHT22;23154;52.542;13.362;2023-11-22T12:33:42;2.90;99.90
37268;DHT22;23154;52.542;13.362;2023-11-22T12:36:09;2.80;99.90
37268;DHT22;23154;52.542;13.362;2023-11-22T12:38:38;2.90;99.90
37268;DHT22;23154;52.542;13.362;2023-11-22T12:41:05;2.70;99.90
37268;DHT22;23154;52.542;13.362;2023-11-22T12:43:33;2.70;99.90
37268;DHT22;23154;52.542;13.362;2023-11-22T12:46:02;2.70;99.90
37268;DHT22;23154;52.542;13.362;2023-11-22T12:48:29;2.70;99.90
37268;DHT22;23154;52.542;13.362;2023-11-22T12:50:58;2.70;99.90
37268;DHT22;23154;52.542;13.362;2023-11-22T12:53:25;2.70;99.90
37268;DHT22;23154;52.542;13.362;2023-11-22T12:55:55;2.70;99.90
37268;DHT22;23154;52.542;13.362;2023-11-22T12:58:26;2.60;99.90
37268;DHT22;23154;52.542;13.362;2023-11-22T13:00:52;2.50;99.90
37268;DHT22;23154;52.542;13.362;2023-11-22T13:03:25;2.60;99.90
37268;DHT22;23154;52.542;13.362;2023-11-22T13:05:54;2.60;99.90
37268;DHT22;23154;52.542;13.362;2023-11-22T13:08:20;2.60;99.90
37268;DHT22;23154;52.542;13.362;2023-11-22T13:10:50;2.60;99.90
37268;DHT22;23154;52.542;13.362;2023-11-22T13:13:22;2.60;99.90
37268;DHT22;23154;52.542;13.362;2023-11-22T13:15:48;2.60;99.90
37268;DHT22;23154;52.542;13.362;2023-11-22T13:18:18;2.50;99.90
37268;DHT22;23154;52.542;13.362;2023-11-22T13:20:44;2.40;99.90
37268;DHT22;23154;52.542;13.362;2023-11-22T13:23:12;2.40;99.90
37268;DHT22;23154;52.542;13.362;2023-11-22T13:25:39;2.30;99.90
37268;DHT22;23154;52.542;13.362;2023-11-22T13:28:08;2.40;99.90
37268;DHT22;23154;52.542;13.362;2023-11-22T13:30:34;2.40;99.90
37268;DHT22;23154;52.542;13.362;2023-11-22T13:33:00;2.40;99.90
37268;DHT22;23154;52.542;13.362;2023-11-22T13:35:28;2.40;99.90
37268;DHT22;23154;52.542;13.362;2023-11-22T13:37:57;2.40;99.90
37268;DHT22;23154;52.542;13.362;2023-11-22T13:40:23;2.40;99.90
37268;DHT22;23154;52.542;13.362;2023-11-22T13:42:51;2.30;99.90
37268;DHT22;23154;52.542;13.362;2023-11-22T13:45:20;2.40;99.90
37268;DHT22;23154;52.542;13.362;2023-11-22T13:47:55;2.50;99.90
37268;DHT22;23154;52.542;13.362;2023-11-22T13:50:26;2.30;99.90
37268;DHT22;23154;52.542;13.362;2023-11-22T13:52:56;2.30;99.90
37268;DHT22;23154;52.542;13.362;2023-11-22T13:55:22;2.20;99.90
37268;DHT22;23154;52.542;13.362;2023-11-22T13:57:57;2.30;99.90
37268;DHT22;23154;52.542;13.362;2023-11-22T14:00:25;2.20;99.90
37268;DHT22;23154;52.542;13.362;2023-11-22T14:02:54;2.20;99.90
37268;DHT22;23154;52.542;13.362;2023-11-22T14:05:22;2.10;99.90
37268;DHT22;23154;52.542;13.362;2023-11-22T14:07:47;2.00;99.90
37268;DHT22;23154;52.542;13.362;2023-11-22T14:10:14;1.90;99.90
37268;DHT22;23154;52.542;13.362;2023-11-22T14:12:45;1.90;99.90
37268;DHT22;23154;52.542;13.362;2023-11-22T14:15:13;1.80;99.90
37268;DHT22;23154;52.542;13.362;2023-11-22T14:17:39;2.00;99.90
37268;DHT22;23154;52.542;13.362;2023-11-22T14:20:10;1.90;99.90
37268;DHT22;23154;52.542;13.362;2023-11-22T14:22:37;1.90;99.90
37268;DHT22;23154;52.542;13.362;2023-11-22T14:25:03;1.70;99.90
37268;DHT22;23154;52.542;13.362;2023-11-22T14:27:33;1.70;99.90
37268;DHT22;23154;52.542;13.362;2023-11-22T14:29:59;1.70;99.90
37268;DHT22;23154;52.542;13.362;2023-11-22T14:32:27;1.60;99.90
37268;DHT22;23154;52.542;13.362;2023-11-22T14:34:54;1.50;99.90
37268;DHT22;23154;52.542;13.362;2023-11-22T14:37:20;1.40;99.90
37268;DHT22;23154;52.542;13.362;2023-11-22T14:39:46;1.40;99.90
37268;DHT22;23154;52.542;13.362;2023-11-22T14:42:12;1.30;99.90
37268;DHT22;23154;52.542;13.362;2023-11-22T14:44:38;1.30;99.90
37268;DHT22;23154;52.542;13.362;2023-11-22T14:47:05;1.20;99.90
37268;DHT22;23154;52.542;13.362;2023-11-22T14:49:38;1.20;99.90
37268;DHT22;23154;52.542;13.362;2023-11-22T14:52:03;1.20;99.90
37268;DHT22;23154;52.542;13.362;2023-11-22T14:54:30;1.10;99.90
37268;DHT22;23154;52.542;13.362;2023-11-22T14:56:56;1.10;99.90
37268;DHT22;23154;52.542;13.362;2023-11-22T14:59:26;1.10;99.90
37268;DHT22;23154;52.542;13.362;2023-11-22T15:01:52;1.10;99.90
37268;DHT22;23154;52.542;13.362;2023-11-22T15:04:18;1.10;99.90
37268;DHT22;23154;52.542;13.362;2023-11-22T15:06:44;1.10;99.90
37268;DHT22;23154;52.542;13.362;2023-11-22T15:09:12;1.10;99.90
37268;DHT22;23154;52.542;13.362;2023-11-22T15:11:41;1.10;99.90
37268;DHT22;23154;52.542;13.362;2023-11-22T15:14:06;1.00;99.90
37268;DHT22;23154;52.542;13.362;2023-11-22T15:16:33;1.00;99.90
37268;DHT22;23154;52.542;13.362;2023-11-22T15:18:59;1.00;99.90
37268;DHT22;23154;52.542;13.362;2023-11-22T15:21:27;1.00;99.90
37268;DHT22;23154;52.542;13.362;2023-11-22T15:23:52;1.00;99.90
37268;DHT22;23154;52.542;13.362;2023-11-22T15:26:21;0.90;99.90
37268;DHT22;23154;52.542;13.362;2023-11-22T15:28:47;1.00;99.90